Alamogordo White Sands Regional Airport Alamogordo US
ICAO: KALM
IATA: ALM
Category: Medium
Scheduled Services: Yes

Elevation: 4200 ft
TransAlt. 18000 ft.

Airport Communications:
HOLLOMAN APP:120.6
AWOS 3:127.825
HOLLOMAN DEP:128.1
ALBUQUERQUE RDO:122.15
CTAF/UNICOM:122.8

KALM Zoom In..

Runways:

(A) RW 03 length 7005 ft width 150 ft
---- / hdg 35

(B) RW 16 length 3549 ft width 190 ft
---- / hdg 163

(C) RW 21 length 7005 ft width 150 ft
---- / hdg 215

(D) RW 34 length 3549 ft width 190 ft
---- / hdg 343

Location; KALM
Day. 22 / Time. 01.55 Zulu
* Altimeter: 29.84
* Temperature: 22° c. 71.6°f.
* Wind from: 180° Speed 21 kn with Gusts up to 35 kn.
Dewpoint: 13° c.
Visibility: 8 Statute Miles.
Clouds: Few 100 ft.
Clouds: Scattered 6000 ft.

KALM 220155Z AUTO 18021G35KT 8SM VCTS FEW001 SCT060 22/13 A2984 RMK AO2 LTG DSNT ALQDS


Wind From 180°
Speed 21 kn.

 
 
jpsmedia.com for Web Design SOUNDCLOUD worldairports.se 2018   terms of use